Sentinel Butte, North Dakota
Current Conditions -  °F | °C
As of 8:51 AM on Saturday 25 Oct 2014 (Local Time) from KBHK Reporting Station
Clear Clear  
Wind Chill: 39°   Ceiling: Unl
Heat Index: 43°   Visibility: 10mi
Dew Point: 33°   Wind: 7mph
Humidity: 68%   Direction: 110°ESE
Pressure: 30.13"   Gusts: NA
Location:  46.92°N, 103.84°W
Report Text: KBHK 251451Z AUTO 11006KT 10SM CLR 06/01 A3013 RMK AO2 SLP215 T00610006 50000
Loading
Personal Weather Stations






























Interactive Weather Map
Tropical Storm Tracking
New forecast layout! Learn more

10-Day Weather Forecast

Advertisements
Track Severe Weather on mobile